TimeEDT,TemperatureF,Dew PointF,Humidity,Sea Level PressureIn,VisibilityMPH,Wind Direction,Wind SpeedMPH,Gust SpeedMPH,PrecipitationIn,Events,Conditions,WindDirDegrees,DateUTC
12:53 AM,64.9,52.0,63,29.98,10.0,Calm,Calm,-,N/A,,Clear,0,2012-10-21 04:53:00
1:53 AM,64.0,54.0,70,29.98,10.0,Calm,Calm,-,N/A,,Clear,0,2012-10-21 05:53:00
2:53 AM,62.1,53.1,72,29.98,10.0,NNW,4.6,-,N/A,,Clear,340,2012-10-21 06:53:00
3:53 AM,62.1,53.1,72,29.98,10.0,North,6.9,-,N/A,,Clear,350,2012-10-21 07:53:00
4:53 AM,61.0,52.0,72,29.98,10.0,North,5.8,-,N/A,,Clear,350,2012-10-21 08:53:00
5:53 AM,60.1,53.1,78,29.99,10.0,North,5.8,-,N/A,,Clear,350,2012-10-21 09:53:00
6:53 AM,60.1,54.0,80,30.00,10.0,North,5.8,-,N/A,,Clear,350,2012-10-21 10:53:00
7:53 AM,61.0,54.0,78,30.01,10.0,North,8.1,-,N/A,,Clear,350,2012-10-21 11:53:00
8:53 AM,66.9,52.0,59,30.04,10.0,North,8.1,-,N/A,,Clear,350,2012-10-21 12:53:00
9:53 AM,72.0,51.1,48,30.05,10.0,North,10.4,-,N/A,,Clear,360,2012-10-21 13:53:00
10:53 AM,75.9,52.0,43,30.06,10.0,NNE,8.1,-,N/A,,Clear,20,2012-10-21 14:53:00
11:53 AM,79.0,51.1,38,30.06,10.0,NE,10.4,-,N/A,,Clear,40,2012-10-21 15:53:00
12:53 PM,80.1,54.0,40,30.05,10.0,NNE,10.4,-,N/A,,Clear,20,2012-10-21 16:53:00
1:53 PM,81.0,53.1,38,30.02,10.0,NNE,10.4,16.1,N/A,,Partly Cloudy,20,2012-10-21 17:53:00
2:53 PM,82.0,57.0,42,30.01,10.0,East,8.1,-,N/A,,Partly Cloudy,80,2012-10-21 18:53:00
3:53 PM,82.0,55.9,41,30.00,10.0,NE,8.1,-,N/A,,Partly Cloudy,40,2012-10-21 19:53:00
4:53 PM,81.0,55.9,42,30.00,10.0,NNE,9.2,-,N/A,,Partly Cloudy,30,2012-10-21 20:53:00
5:53 PM,78.1,57.9,50,30.01,10.0,ENE,13.8,18.4,N/A,,Partly Cloudy,60,2012-10-21 21:53:00
6:53 PM,73.9,57.9,57,30.03,10.0,NE,11.5,-,N/A,,Partly Cloudy,50,2012-10-21 22:53:00
7:53 PM,72.0,57.9,61,30.05,10.0,NNE,9.2,-,N/A,,Clear,30,2012-10-21 23:53:00
8:53 PM,71.1,59.0,66,30.06,10.0,NNE,9.2,-,N/A,,Clear,20,2012-10-22 00:53:00
9:53 PM,68.0,60.1,76,30.08,10.0,North,6.9,-,N/A,,Clear,360,2012-10-22 01:53:00
10:53 PM,68.0,59.0,73,30.08,10.0,North,6.9,-,N/A,,Partly Cloudy,350,2012-10-22 02:53:00
11:53 PM,66.9,59.0,76,30.07,10.0,North,6.9,-,N/A,,Scattered Clouds,350,2012-10-22 03:53:00